createdAt,value
2023-03-03T00:01:21.210Z,30.70
2023-03-03T00:03:54.167Z,27.17
2023-03-03T00:09:41.542Z,27.88
2023-03-03T00:12:31.844Z,28.73
2023-03-03T00:15:19.860Z,26.77
2023-03-03T00:17:54.295Z,27.13
2023-03-03T00:20:37.640Z,28.25
2023-03-03T00:23:39.552Z,26.42
2023-03-03T00:26:26.496Z,26.60
2023-03-03T00:28:59.227Z,27.80
2023-03-03T00:31:36.329Z,27.25
2023-03-03T00:34:18.272Z,27.58
2023-03-03T00:36:56.446Z,29.42
2023-03-03T00:39:38.514Z,26.05
2023-03-03T00:42:20.320Z,30.30
2023-03-03T00:45:00.644Z,26.95
2023-03-03T00:47:42.712Z,27.55
2023-03-03T00:50:35.483Z,25.80
2023-03-03T00:53:14.568Z,26.33
2023-03-03T00:55:49.601Z,28.40
2023-03-03T00:58:24.712Z,28.02
2023-03-03T01:00:59.229Z,28.42
2023-03-03T01:03:41.949Z,29.50
2023-03-03T01:06:15.716Z,28.25
2023-03-03T01:08:48.320Z,28.50
2023-03-03T01:11:25.462Z,29.70
2023-03-03T01:13:57.541Z,28.98
2023-03-03T01:16:33.151Z,29.52
2023-03-03T01:19:05.069Z,28.35
2023-03-03T01:21:37.842Z,31.83
2023-03-03T01:24:09.870Z,27.88
2023-03-03T01:26:44.747Z,28.55
2023-03-03T01:29:16.626Z,28.23
2023-03-03T01:31:49.344Z,29.42
2023-03-03T01:34:22.531Z,29.47
2023-03-03T01:36:54.417Z,27.58
2023-03-03T01:39:27.218Z,28.00
2023-03-03T01:41:59.326Z,28.55
2023-03-03T01:44:32.207Z,26.87
2023-03-03T01:47:16.676Z,26.40
2023-03-03T01:49:56.780Z,27.67
2023-03-03T01:52:43.897Z,27.00
2023-03-03T01:58:36.451Z,24.83
2023-03-03T02:01:18.139Z,27.30
2023-03-03T02:04:13.265Z,26.30
2023-03-03T02:06:52.116Z,27.27
2023-03-03T02:09:42.641Z,28.08
2023-03-03T02:12:19.538Z,27.77
2023-03-03T02:14:52.296Z,29.73
2023-03-03T02:17:24.816Z,27.17
2023-03-03T02:20:12.217Z,27.15
2023-03-03T02:23:11.241Z,28.33
2023-03-03T02:26:16.831Z,27.88
2023-03-03T02:28:52.019Z,27.13
2023-03-03T02:34:21.401Z,25.77
2023-03-03T02:36:53.771Z,28.35
2023-03-03T02:39:30.913Z,27.63
2023-03-03T02:42:17.541Z,27.10
2023-03-03T02:44:55.369Z,27.45
2023-03-03T02:47:27.247Z,27.40
2023-03-03T02:50:00.049Z,28.98
2023-03-03T02:52:32.786Z,29.20
2023-03-03T02:55:06.359Z,25.47
2023-03-03T02:57:39.106Z,28.65
2023-03-03T03:00:12.115Z,27.15
2023-03-03T03:02:45.106Z,28.35
2023-03-03T03:05:18.210Z,26.90
2023-03-03T03:07:50.920Z,27.93
2023-03-03T03:10:23.882Z,26.60
2023-03-03T03:12:58.853Z,27.17
2023-03-03T03:15:31.296Z,27.15
2023-03-03T03:18:05.289Z,27.23
2023-03-03T03:20:40.041Z,26.97
2023-03-03T03:23:35.645Z,26.45
2023-03-03T03:26:08.702Z,26.60
2023-03-03T03:28:41.342Z,28.60
2023-03-03T03:31:18.944Z,26.98
2023-03-03T03:33:52.380Z,26.60
2023-03-03T03:36:27.043Z,26.55
2023-03-03T03:39:03.315Z,26.98
2023-03-03T03:41:36.065Z,26.95
2023-03-03T03:44:08.880Z,26.83
2023-03-03T03:46:41.498Z,26.53
2023-03-03T03:49:13.518Z,27.60
2023-03-03T03:51:47.329Z,27.90
2023-03-03T03:54:23.645Z,26.83
2023-03-03T03:56:57.274Z,28.45
2023-03-03T03:59:30.795Z,27.57
2023-03-03T04:02:03.853Z,29.45
2023-03-03T04:04:36.996Z,27.67
2023-03-03T04:10:05.229Z,27.35
2023-03-03T04:12:40.935Z,26.10
2023-03-03T04:15:17.311Z,26.33
2023-03-03T04:17:50.827Z,26.83
2023-03-03T04:20:23.431Z,26.35
2023-03-03T04:22:57.177Z,28.50
2023-03-03T04:25:30.970Z,25.33
2023-03-03T04:28:05.628Z,26.65
2023-03-03T04:30:40.957Z,27.10
2023-03-03T04:33:14.057Z,28.33
2023-03-03T04:35:47.237Z,27.63
2023-03-03T04:38:19.378Z,28.50
2023-03-03T04:40:53.884Z,27.20
2023-03-03T04:43:26.100Z,27.75
2023-03-03T04:45:59.769Z,28.52
2023-03-03T04:48:32.155Z,26.30
2023-03-03T04:51:07.971Z,27.37
2023-03-03T04:53:41.568Z,26.08
2023-03-03T04:56:16.188Z,26.95
2023-03-03T04:58:48.548Z,26.48
2023-03-03T05:01:22.583Z,26.17
2023-03-03T05:03:55.485Z,27.03
2023-03-03T05:06:49.656Z,26.00
2023-03-03T05:09:21.928Z,25.13
2023-03-03T05:14:44.842Z,24.90
2023-03-03T05:17:17.168Z,26.07
2023-03-03T05:19:49.514Z,26.23
2023-03-03T05:22:24.967Z,25.00
2023-03-03T05:24:57.770Z,26.33
2023-03-03T05:27:30.917Z,26.30
2023-03-03T05:30:03.058Z,26.53
2023-03-03T05:32:36.727Z,25.23
2023-03-03T05:35:09.032Z,25.50
2023-03-03T05:37:47.377Z,27.15
2023-03-03T05:40:19.786Z,25.77
2023-03-03T05:42:52.634Z,25.67
2023-03-03T05:45:24.823Z,26.52
2023-03-03T05:47:57.618Z,24.75
2023-03-03T05:50:30.142Z,25.35
2023-03-03T05:53:03.202Z,25.33
2023-03-03T05:55:35.127Z,25.43
2023-03-03T05:58:07.561Z,24.00
2023-03-03T06:00:40.154Z,25.08
2023-03-03T06:03:12.179Z,25.38
2023-03-03T06:05:45.042Z,25.73
2023-03-03T06:08:17.550Z,27.43
2023-03-03T06:10:49.480Z,25.48
2023-03-03T06:13:22.414Z,24.48
2023-03-03T06:15:56.326Z,24.65
2023-03-03T06:18:28.407Z,25.35
2023-03-03T06:21:00.299Z,26.33
2023-03-03T06:23:33.656Z,26.10
2023-03-03T06:26:06.105Z,26.42
2023-03-03T06:28:37.990Z,25.85
2023-03-03T06:31:10.749Z,25.70
2023-03-03T06:33:43.377Z,25.13
2023-03-03T06:36:16.607Z,24.73
2023-03-03T06:38:49.505Z,26.27
2023-03-03T06:41:22.042Z,26.00
2023-03-03T06:44:16.596Z,24.15
2023-03-03T06:46:48.546Z,24.77
2023-03-03T06:49:21.019Z,25.80
2023-03-03T06:51:53.649Z,25.63
2023-03-03T06:54:31.032Z,26.80
2023-03-03T06:57:18.920Z,24.17
2023-03-03T06:59:55.048Z,24.60
2023-03-03T07:02:28.357Z,24.77
2023-03-03T07:05:02.250Z,27.27
2023-03-03T07:07:34.123Z,26.58
2023-03-03T07:10:20.080Z,26.80
2023-03-03T07:12:52.684Z,27.17
2023-03-03T07:15:35.254Z,26.65
2023-03-03T07:18:41.429Z,26.52
2023-03-03T07:21:26.108Z,25.55
2023-03-03T07:24:01.053Z,25.05
2023-03-03T07:26:35.264Z,25.70
2023-03-03T07:29:27.768Z,24.17
2023-03-03T07:32:03.056Z,24.75
2023-03-03T07:34:46.964Z,25.63
2023-03-03T07:37:39.945Z,27.98
2023-03-03T07:40:38.484Z,24.63
2023-03-03T07:43:30.952Z,26.77
2023-03-03T07:46:30.434Z,25.88
2023-03-03T07:49:30.098Z,25.70
2023-03-03T07:52:19.891Z,26.05
2023-03-03T07:54:53.747Z,25.13
2023-03-03T07:57:40.474Z,25.90
2023-03-03T08:00:16.440Z,25.20
2023-03-03T08:02:59.768Z,24.65
2023-03-03T08:05:40.360Z,27.08
2023-03-03T08:08:34.943Z,25.80
2023-03-03T08:11:10.150Z,26.05
2023-03-03T08:13:43.860Z,25.85
2023-03-03T08:16:16.148Z,28.42
2023-03-03T08:18:53.979Z,27.33
2023-03-03T08:21:26.817Z,26.17
2023-03-03T08:23:59.060Z,26.42
2023-03-03T08:26:31.386Z,26.17
2023-03-03T08:29:03.634Z,28.08
2023-03-03T08:31:42.887Z,28.35
2023-03-03T08:34:15.174Z,27.73
2023-03-03T08:36:47.436Z,27.52
2023-03-03T08:39:20.039Z,27.33
2023-03-03T08:41:51.939Z,26.90
2023-03-03T08:44:24.584Z,29.35
2023-03-03T08:46:56.471Z,28.90
2023-03-03T08:49:28.692Z,28.40
2023-03-03T08:52:00.814Z,28.80
2023-03-03T08:54:33.965Z,29.20
2023-03-03T08:57:06.277Z,29.00
2023-03-03T08:59:39.396Z,27.93
2023-03-03T09:02:14.372Z,28.58
2023-03-03T09:04:46.371Z,26.83
2023-03-03T09:07:18.621Z,27.73
2023-03-03T09:09:50.914Z,27.88
2023-03-03T09:12:37.268Z,28.10
2023-03-03T09:15:25.559Z,27.48
2023-03-03T09:18:22.629Z,26.33
2023-03-03T09:20:57.919Z,27.58
2023-03-03T09:23:36.784Z,27.63
2023-03-03T09:26:15.512Z,27.47
2023-03-03T09:28:47.822Z,26.45
2023-03-03T09:31:40.633Z,28.25
2023-03-03T09:34:41.671Z,27.98
2023-03-03T09:37:38.095Z,26.33
2023-03-03T09:41:03.584Z,26.00
2023-03-03T09:44:02.466Z,27.08
2023-03-03T09:47:14.476Z,25.75
2023-03-03T09:50:19.758Z,27.25
2023-03-03T09:53:19.486Z,27.02
2023-03-03T09:55:59.464Z,28.70
2023-03-03T09:58:46.170Z,27.02
2023-03-03T10:01:24.850Z,27.48
2023-03-03T10:04:43.042Z,27.65
2023-03-03T10:07:47.142Z,27.50
2023-03-03T10:10:21.623Z,28.97
2023-03-03T10:13:20.671Z,28.02
2023-03-03T10:16:12.635Z,26.63
2023-03-03T10:19:01.215Z,28.02
2023-03-03T10:21:47.500Z,29.92
2023-03-03T10:25:05.266Z,29.17
2023-03-03T10:27:58.626Z,31.58
2023-03-03T10:31:05.589Z,30.25
2023-03-03T10:34:08.520Z,28.95
2023-03-03T10:36:56.056Z,31.90
2023-03-03T10:40:10.831Z,30.57
2023-03-03T10:43:10.433Z,30.13
2023-03-03T10:46:01.861Z,29.75
2023-03-03T10:49:22.502Z,30.08
2023-03-03T10:52:22.770Z,31.25
2023-03-03T10:55:16.472Z,32.30
2023-03-03T10:58:19.797Z,29.85
2023-03-03T11:01:27.659Z,31.23
2023-03-03T11:04:16.355Z,30.42
2023-03-03T11:06:59.904Z,29.73
2023-03-03T11:10:06.132Z,32.50
2023-03-03T11:13:13.860Z,30.50
2023-03-03T11:16:22.739Z,26.98
2023-03-03T11:19:28.326Z,28.67
2023-03-03T11:22:39.247Z,31.05
2023-03-03T11:25:26.348Z,29.83
2023-03-03T11:28:31.321Z,30.55
2023-03-03T11:31:31.952Z,30.75
2023-03-03T11:34:32.713Z,29.73
2023-03-03T11:37:10.551Z,29.65
2023-03-03T11:39:45.451Z,29.58
2023-03-03T11:42:52.949Z,29.85
2023-03-03T11:45:41.239Z,29.70
2023-03-03T11:48:36.327Z,29.30
2023-03-03T11:51:24.895Z,29.30
2023-03-03T11:55:06.889Z,30.08
2023-03-03T11:58:02.289Z,26.48
2023-03-03T12:00:42.118Z,28.55
2023-03-03T12:03:50.702Z,28.17
2023-03-03T12:06:50.733Z,28.52
2023-03-03T12:09:28.673Z,29.50
2023-03-03T12:12:16.194Z,29.67
2023-03-03T12:15:29.106Z,30.90
2023-03-03T12:18:50.980Z,31.23
2023-03-03T12:21:51.243Z,29.50
2023-03-03T12:25:05.514Z,31.13
2023-03-03T12:28:23.644Z,29.27
2023-03-03T12:31:50.319Z,30.10
2023-03-03T12:34:52.970Z,28.80
2023-03-03T12:37:51.495Z,29.80
2023-03-03T12:40:36.867Z,29.55
2023-03-03T12:44:07.595Z,30.95
2023-03-03T12:47:25.463Z,29.88
2023-03-03T12:50:48.552Z,29.20
2023-03-03T12:54:06.859Z,31.33
2023-03-03T12:57:25.114Z,32.53
2023-03-03T13:00:29.476Z,29.48
2023-03-03T13:03:32.124Z,29.63
2023-03-03T13:06:57.215Z,29.48
2023-03-03T13:09:44.084Z,31.05
2023-03-03T13:12:43.668Z,28.45
2023-03-03T13:15:54.852Z,29.02
2023-03-03T13:18:54.259Z,28.08
2023-03-03T13:22:00.334Z,29.88
2023-03-03T13:25:01.110Z,30.88
2023-03-03T13:27:42.100Z,29.63
2023-03-03T13:30:30.739Z,29.45
2023-03-03T13:33:28.500Z,30.52
2023-03-03T13:36:11.941Z,29.83
2023-03-03T13:38:57.116Z,30.38
2023-03-03T13:41:44.296Z,31.45
2023-03-03T13:44:44.183Z,30.95
2023-03-03T13:48:00.698Z,30.17
2023-03-03T13:51:25.151Z,29.88
2023-03-03T13:54:20.488Z,29.35
2023-03-03T13:57:26.167Z,30.70
2023-03-03T14:00:17.759Z,28.33
2023-03-03T14:03:41.128Z,31.63
2023-03-03T14:06:27.356Z,29.83
2023-03-03T14:09:06.510Z,32.00
2023-03-03T14:12:12.482Z,30.00
2023-03-03T14:15:20.830Z,32.10
2023-03-03T14:18:23.021Z,30.83
2023-03-03T14:21:09.222Z,31.25
2023-03-03T14:24:18.169Z,31.85
2023-03-03T14:26:57.587Z,31.10
2023-03-03T14:29:31.385Z,29.95
2023-03-03T14:32:39.486Z,32.20
2023-03-03T14:35:23.018Z,32.50
2023-03-03T14:38:13.130Z,32.17
2023-03-03T14:40:48.078Z,32.83
2023-03-03T14:43:42.876Z,30.88
2023-03-03T14:46:34.672Z,32.30
2023-03-03T14:49:37.653Z,32.38
2023-03-03T14:52:16.568Z,31.63
2023-03-03T14:54:52.574Z,30.90
2023-03-03T14:57:47.441Z,31.02
2023-03-03T15:00:19.851Z,32.75
2023-03-03T15:02:53.072Z,32.58
2023-03-03T15:05:36.827Z,30.83
2023-03-03T15:08:14.943Z,30.90
2023-03-03T15:10:47.016Z,31.88
2023-03-03T15:13:20.392Z,32.78
2023-03-03T15:16:05.721Z,32.33
2023-03-03T15:19:31.476Z,32.97
2023-03-03T15:22:21.732Z,30.05
2023-03-03T15:25:34.791Z,32.40
2023-03-03T15:32:25.212Z,30.15
2023-03-03T15:35:31.381Z,30.55
2023-03-03T15:38:30.704Z,31.20
2023-03-03T15:41:20.976Z,30.13
2023-03-03T15:44:19.801Z,31.38
2023-03-03T15:47:23.235Z,30.58
2023-03-03T15:50:29.406Z,31.35
2023-03-03T15:53:34.582Z,31.92
2023-03-03T15:56:35.994Z,32.58
2023-03-03T15:59:23.092Z,32.95
2023-03-03T16:02:15.717Z,32.67
2023-03-03T16:05:16.273Z,32.80
2023-03-03T16:08:21.864Z,30.77
2023-03-03T16:11:50.063Z,31.10
2023-03-03T16:15:27.085Z,32.65
2023-03-03T16:18:05.871Z,31.25
2023-03-03T16:21:06.542Z,29.55
2023-03-03T16:24:03.122Z,31.65
2023-03-03T16:27:37.565Z,31.52
2023-03-03T16:30:26.951Z,29.95
2023-03-03T16:33:32.083Z,31.58
2023-03-03T16:36:20.113Z,31.13
2023-03-03T16:39:24.889Z,31.00
2023-03-03T16:42:32.680Z,30.67
2023-03-03T16:45:37.763Z,31.30
2023-03-03T16:48:35.602Z,31.40
2023-03-03T16:51:32.129Z,30.60
2023-03-03T16:54:40.325Z,31.73
2023-03-03T16:57:56.276Z,31.00
2023-03-03T17:00:34.014Z,32.10
2023-03-03T17:03:31.479Z,30.52
2023-03-03T17:10:29.794Z,31.65
2023-03-03T17:13:41.638Z,31.35
2023-03-03T17:17:00.207Z,30.20
2023-03-03T17:19:44.380Z,31.60
2023-03-03T17:23:06.667Z,31.42
2023-03-03T17:25:50.299Z,31.95
2023-03-03T17:29:05.700Z,31.25
2023-03-03T17:32:12.131Z,32.05
2023-03-03T17:35:15.069Z,31.42
2023-03-03T17:38:06.951Z,31.40
2023-03-03T17:41:09.769Z,31.17
2023-03-03T17:44:13.472Z,30.98
2023-03-03T17:46:55.319Z,31.73
2023-03-03T17:49:43.735Z,31.67
2023-03-03T17:52:51.237Z,31.75
2023-03-03T17:56:26.375Z,32.72
2023-03-03T17:59:26.127Z,31.23
2023-03-03T18:02:44.845Z,32.42
2023-03-03T18:05:42.512Z,31.27
2023-03-03T18:08:45.153Z,29.98
2023-03-03T18:11:45.885Z,30.70
2023-03-03T18:14:49.854Z,31.40
2023-03-03T18:18:05.674Z,31.58
2023-03-03T18:21:08.041Z,31.10
2023-03-03T18:23:46.244Z,31.70
2023-03-03T18:26:41.801Z,32.07
2023-03-03T18:29:16.647Z,30.88
2023-03-03T18:31:52.871Z,30.75
2023-03-03T18:34:39.042Z,32.25
2023-03-03T18:37:35.272Z,30.70
2023-03-03T18:40:07.093Z,29.93
2023-03-03T18:42:42.752Z,30.05
2023-03-03T18:45:21.361Z,29.60
2023-03-03T18:48:11.372Z,30.67
2023-03-03T18:50:55.607Z,30.35
2023-03-03T18:53:35.781Z,30.60
2023-03-03T18:56:53.769Z,30.95
2023-03-03T18:59:34.881Z,30.55
2023-03-03T19:02:12.903Z,31.50
2023-03-03T19:05:08.095Z,31.38
2023-03-03T19:07:40.319Z,33.87
2023-03-03T19:10:21.540Z,33.42
2023-03-03T19:12:59.200Z,32.90
2023-03-03T19:15:31.202Z,32.38
2023-03-03T19:18:18.662Z,33.30
2023-03-03T19:21:12.902Z,33.80
2023-03-03T19:24:05.061Z,33.28
2023-03-03T19:26:58.316Z,32.95
2023-03-03T19:29:46.688Z,35.55
2023-03-03T19:33:00.580Z,34.72
2023-03-03T19:35:48.906Z,33.30
2023-03-03T19:39:09.546Z,32.00
2023-03-03T19:42:06.542Z,55.25
2023-03-03T19:45:12.079Z,41.97
2023-03-03T19:48:13.072Z,35.28
2023-03-03T19:54:44.036Z,31.10
2023-03-03T19:57:34.582Z,33.50
2023-03-03T20:00:26.015Z,33.42
2023-03-03T20:06:56.979Z,34.40
2023-03-03T20:10:01.177Z,32.22
2023-03-03T20:13:12.268Z,34.53
2023-03-03T20:15:49.864Z,34.10
2023-03-03T20:18:40.860Z,34.97
2023-03-03T20:21:38.448Z,33.83
2023-03-03T20:24:22.042Z,32.45
2023-03-03T20:27:08.060Z,33.22
2023-03-03T20:30:36.307Z,34.08
2023-03-03T20:33:48.606Z,32.25
2023-03-03T20:36:59.324Z,34.63
2023-03-03T20:40:11.269Z,34.03
2023-03-03T20:42:59.110Z,32.45
2023-03-03T20:45:53.850Z,33.47
2023-03-03T20:48:50.650Z,31.58
2023-03-03T20:51:58.422Z,33.27
2023-03-03T20:54:49.529Z,34.00
2023-03-03T20:57:47.524Z,33.10
2023-03-03T21:00:27.217Z,32.47
2023-03-03T21:03:26.087Z,33.00
2023-03-03T21:06:09.301Z,34.63
2023-03-03T21:08:55.138Z,34.95
2023-03-03T21:11:30.306Z,33.38
2023-03-03T21:14:30.564Z,60.10
2023-03-03T21:17:30.119Z,38.38
2023-03-03T21:20:26.625Z,33.43
2023-03-03T21:23:02.516Z,32.35
2023-03-03T21:28:34.968Z,34.78
2023-03-03T21:31:17.275Z,35.08
2023-03-03T21:33:56.345Z,34.40
2023-03-03T21:36:37.443Z,40.78
2023-03-03T21:39:29.047Z,35.33
2023-03-03T21:42:02.337Z,35.72
2023-03-03T21:44:53.187Z,34.33
2023-03-03T21:47:29.100Z,33.67
2023-03-03T21:50:02.446Z,34.83
2023-03-03T21:52:35.104Z,33.22
2023-03-03T21:55:09.387Z,35.28
2023-03-03T21:57:41.737Z,33.83
2023-03-03T22:00:14.872Z,36.67
2023-03-03T22:02:47.233Z,33.50
2023-03-03T22:05:19.902Z,33.80
2023-03-03T22:07:52.688Z,33.40
2023-03-03T22:10:24.556Z,33.67
2023-03-03T22:12:58.035Z,35.13
2023-03-03T22:15:33.164Z,34.10
2023-03-03T22:18:05.989Z,34.30
2023-03-03T22:20:38.338Z,34.85
2023-03-03T22:23:10.661Z,33.25
2023-03-03T22:25:42.646Z,32.80
2023-03-03T22:28:15.452Z,33.58
2023-03-03T22:30:47.410Z,34.28
2023-03-03T22:33:23.321Z,35.10
2023-03-03T22:35:55.651Z,34.03
2023-03-03T22:38:28.508Z,33.50
2023-03-03T22:41:02.035Z,33.95
2023-03-03T22:43:34.335Z,34.28
2023-03-03T22:46:07.113Z,34.10
2023-03-03T22:48:57.994Z,33.55
2023-03-03T22:51:30.514Z,33.33
2023-03-03T22:54:02.823Z,33.35
2023-03-03T22:56:35.267Z,33.53
2023-03-03T22:59:07.197Z,33.35
2023-03-03T23:01:39.889Z,32.70
2023-03-03T23:04:11.827Z,33.57
2023-03-03T23:06:48.643Z,32.70
2023-03-03T23:09:20.966Z,33.53
2023-03-03T23:11:54.025Z,35.60
2023-03-03T23:14:25.987Z,34.80
2023-03-03T23:16:58.697Z,32.23
2023-03-03T23:19:30.999Z,33.03
2023-03-03T23:22:03.527Z,32.50
2023-03-03T23:24:35.559Z,34.50
2023-03-03T23:30:05.066Z,32.77
2023-03-03T23:32:37.361Z,31.20
2023-03-03T23:35:09.956Z,32.35
2023-03-03T23:37:42.774Z,33.08
2023-03-03T23:40:17.023Z,31.92
2023-03-03T23:42:50.086Z,32.53
2023-03-03T23:45:22.404Z,31.35
2023-03-03T23:47:57.837Z,31.45
2023-03-03T23:50:29.816Z,34.85
2023-03-03T23:53:03.774Z,32.75
2023-03-03T23:55:36.674Z,34.03
2023-03-03T23:58:08.976Z,34.95
